Time;durP1;ratioP1;P1;durP2;ratioP2;P2;SDS_P1;SDS_P2;PMS_P1;PMS_P2;Temp;Humidity;BMP_temperature;BMP_pressure;BME280_temperature;BME280_humidity;BME280_pressure;Samples;Min_cycle;Max_cycle;Signal;HPM_P1;HPM_P2
2023/12/22 00:00:38;;;;;;;2.37;0.90;;;6.80;69.80;;;;;;4940795;28;46371;-81
2023/12/22 00:03:03;;;;;;;8.23;1.10;;;6.70;70.10;;;;;;4947259;28;46394;-82
2023/12/22 00:05:29;;;;;;;2.40;0.77;;;6.70;71.20;;;;;;4948050;28;46737;-81
2023/12/22 00:07:55;;;;;;;3.27;0.70;;;6.60;71.60;;;;;;4939376;28;46906;-80
2023/12/22 00:10:21;;;;;;;1.50;0.80;;;6.50;70.90;;;;;;4922559;28;46999;-77
2023/12/22 00:12:46;;;;;;;1.60;0.70;;;6.40;71.70;;;;;;4938539;28;46474;-81
2023/12/22 00:15:12;;;;;;;1.43;0.60;;;6.40;71.50;;;;;;4938643;28;48349;-83
2023/12/22 00:17:37;;;;;;;1.30;0.60;;;6.30;72.00;;;;;;4939645;28;46787;-77
2023/12/22 00:20:03;;;;;;;1.67;0.70;;;6.20;72.30;;;;;;4938551;28;45895;-83
2023/12/22 00:22:30;;;;;;;2.87;0.80;;;6.00;73.00;;;;;;4940816;28;47016;-80
2023/12/22 00:24:56;;;;;;;1.30;0.70;;;5.70;74.20;;;;;;4938728;28;46412;-80
2023/12/22 00:27:21;;;;;;;2.00;0.70;;;5.70;74.20;;;;;;4923053;28;47219;-82
2023/12/22 00:29:47;;;;;;;1.83;0.70;;;5.80;74.10;;;;;;4941018;28;47584;-80
2023/12/22 00:32:12;;;;;;;4.77;0.63;;;5.70;74.20;;;;;;4923552;28;46491;-81
2023/12/22 00:34:38;;;;;;;2.83;1.00;;;5.60;74.10;;;;;;4939679;28;46730;-83
2023/12/22 00:37:04;;;;;;;4.97;0.97;;;5.40;74.00;;;;;;4938300;28;48637;-82
2023/12/22 00:39:30;;;;;;;4.23;0.90;;;5.40;74.00;;;;;;4942363;28;46542;-82
2023/12/22 00:41:56;;;;;;;3.03;0.80;;;5.30;74.50;;;;;;4941190;28;47098;-82
2023/12/22 00:44:21;;;;;;;2.27;0.70;;;5.10;75.80;;;;;;4942057;28;46212;-81
2023/12/22 00:46:47;;;;;;;1.73;0.80;;;5.10;76.00;;;;;;4939449;28;45854;-82
2023/12/22 00:49:13;;;;;;;2.00;0.70;;;5.10;76.20;;;;;;4937737;28;46480;-82
2023/12/22 00:51:38;;;;;;;2.60;0.70;;;5.10;76.40;;;;;;4937562;28;46876;-81
2023/12/22 00:54:04;;;;;;;1.87;1.00;;;5.00;76.70;;;;;;4936887;28;46527;-79
2023/12/22 00:56:29;;;;;;;3.23;1.07;;;5.10;76.90;;;;;;4938346;28;46403;-81
2023/12/22 00:58:55;;;;;;;1.77;0.70;;;5.10;76.90;;;;;;4938760;28;46509;-81
2023/12/22 01:01:21;;;;;;;1.33;0.73;;;5.20;76.70;;;;;;4938456;28;46430;-82
2023/12/22 01:03:46;;;;;;;1.40;0.80;;;5.20;76.50;;;;;;4935016;28;46488;-79
2023/12/22 01:06:12;;;;;;;3.07;0.90;;;5.30;76.20;;;;;;4931062;28;47044;-81
2023/12/22 01:08:38;;;;;;;3.00;0.80;;;5.40;76.00;;;;;;4938758;28;46709;-79
2023/12/22 01:11:04;;;;;;;2.13;0.70;;;5.40;75.70;;;;;;4921822;28;46390;-79
2023/12/22 01:13:29;;;;;;;1.30;0.90;;;5.40;75.30;;;;;;4937666;28;46649;-80
2023/12/22 01:15:55;;;;;;;1.60;0.73;;;5.40;75.00;;;;;;4939473;28;46359;-79
2023/12/22 01:18:20;;;;;;;2.07;0.77;;;5.40;74.80;;;;;;4939879;28;46634;-79
2023/12/22 01:20:46;;;;;;;2.00;0.80;;;5.40;75.00;;;;;;4938730;28;45888;-81
2023/12/22 01:23:11;;;;;;;1.50;0.70;;;5.40;75.10;;;;;;4938847;28;46984;-80
2023/12/22 01:25:43;;;;;;;2.60;0.60;;;5.30;75.20;;;;;;4941063;28;46656;-79
2023/12/22 01:28:08;;;;;;;1.47;0.70;;;5.40;75.10;;;;;;4921101;28;46542;-80
2023/12/22 01:30:34;;;;;;;1.63;0.70;;;5.40;74.70;;;;;;4939350;28;46371;-80
2023/12/22 01:32:59;;;;;;;1.33;0.70;;;5.50;74.10;;;;;;4938658;28;46784;-81
2023/12/22 01:35:25;;;;;;;1.63;0.70;;;5.50;74.10;;;;;;4938648;28;45902;-80
2023/12/22 01:37:51;;;;;;;2.20;0.87;;;5.60;74.10;;;;;;4942688;28;46631;-79
2023/12/22 01:40:16;;;;;;;1.40;0.70;;;5.70;74.30;;;;;;4941625;28;45900;-79
2023/12/22 01:42:42;;;;;;;3.43;0.77;;;5.70;73.50;;;;;;4939679;28;48035;-80
2023/12/22 01:45:08;;;;;;;1.00;0.60;;;5.60;73.10;;;;;;4939334;28;46561;-80
2023/12/22 01:47:35;;;;;;;1.67;0.67;;;5.50;72.90;;;;;;4940186;28;46487;-79
2023/12/22 01:50:01;;;;;;;2.07;0.70;;;5.40;72.90;;;;;;4941949;28;45945;-78
2023/12/22 01:52:27;;;;;;;2.07;1.00;;;5.30;72.70;;;;;;4941311;28;46615;-80
2023/12/22 01:54:54;;;;;;;1.17;0.60;;;5.30;72.30;;;;;;4924901;28;46596;-80
2023/12/22 01:57:20;;;;;;;2.20;0.60;;;5.10;72.20;;;;;;4942312;28;46562;-79
2023/12/22 01:59:48;;;;;;;1.00;0.60;;;4.90;72.10;;;;;;4943692;28;46907;-78
2023/12/22 02:02:14;;;;;;;1.20;0.60;;;4.70;72.10;;;;;;4939682;28;48200;-82
2023/12/22 02:04:40;;;;;;;1.10;0.50;;;4.40;72.10;;;;;;4941852;28;46546;-82
2023/12/22 02:07:08;;;;;;;0.90;0.60;;;4.20;72.90;;;;;;4941736;28;46553;-81
2023/12/22 02:09:35;;;;;;;1.20;0.70;;;4.00;72.80;;;;;;4942772;28;46182;-81
2023/12/22 02:12:00;;;;;;;1.00;0.57;;;3.90;72.70;;;;;;4941421;28;48215;-82
2023/12/22 02:14:26;;;;;;;4.20;0.60;;;3.90;72.70;;;;;;4924500;28;46518;-80
2023/12/22 02:17:01;;;;;;;0.90;0.60;;;3.80;72.70;;;;;;4944064;28;46505;-80
2023/12/22 02:19:39;;;;;;;1.30;0.60;;;3.70;72.40;;;;;;4943208;28;46521;-81
2023/12/22 02:22:09;;;;;;;0.90;0.50;;;3.70;71.90;;;;;;4941952;28;46455;-81
2023/12/22 02:24:35;;;;;;;1.10;0.60;;;3.80;71.50;;;;;;4942464;28;46472;-80
2023/12/22 02:27:42;;;;;;;1.07;0.50;;;3.80;71.20;;;;;;4944168;28;46443;-83
2023/12/22 02:30:14;;;;;;;1.00;0.60;;;3.90;70.90;;;;;;4943827;28;47049;-83
2023/12/22 02:32:45;;;;;;;1.30;0.70;;;3.90;70.70;;;;;;4945994;28;46499;-83
2023/12/22 02:35:16;;;;;;;0.97;0.60;;;3.90;70.60;;;;;;4945417;28;46506;-84
2023/12/22 02:37:42;;;;;;;0.80;0.50;;;4.00;70.10;;;;;;4944770;28;46429;-81
2023/12/22 02:40:09;;;;;;;1.63;0.70;;;4.20;70.90;;;;;;4938825;28;46788;-81
2023/12/22 02:42:37;;;;;;;1.37;0.60;;;4.20;69.40;;;;;;4939205;28;46802;-80
2023/12/22 02:45:04;;;;;;;0.90;0.55;;;4.20;69.30;;;;;;4923811;28;47299;-80
2023/12/22 02:47:32;;;;;;;0.85;0.50;;;4.20;69.50;;;;;;4939512;28;46413;-81
2023/12/22 02:49:57;;;;;;;0.80;0.50;;;4.30;69.30;;;;;;4938121;28;46666;-82
2023/12/22 02:52:23;;;;;;;1.03;0.60;;;4.40;68.80;;;;;;4940147;28;46487;-77
2023/12/22 02:54:49;;;;;;;1.57;0.67;;;4.60;68.30;;;;;;4940312;28;46493;-81
2023/12/22 02:57:14;;;;;;;1.17;0.60;;;4.50;68.40;;;;;;4937147;28;45822;-81
2023/12/22 02:59:40;;;;;;;0.90;0.57;;;4.60;68.30;;;;;;4940388;28;46630;-81
2023/12/22 03:02:05;;;;;;;1.43;0.60;;;4.70;68.10;;;;;;4943600;28;47314;-78
2023/12/22 03:04:31;;;;;;;1.00;0.60;;;4.80;68.10;;;;;;4941876;28;46351;-79
2023/12/22 03:06:56;;;;;;;2.03;0.70;;;4.70;68.20;;;;;;4922759;28;46947;-81
2023/12/22 03:09:22;;;;;;;1.00;0.60;;;4.80;68.20;;;;;;4939765;28;46420;-82
2023/12/22 03:11:48;;;;;;;1.90;0.80;;;4.80;68.20;;;;;;4937163;28;52979;-79
2023/12/22 03:14:14;;;;;;;1.47;0.70;;;4.80;68.30;;;;;;4940399;28;46572;-82
2023/12/22 03:16:40;;;;;;;4.20;1.17;;;5.00;69.40;;;;;;4939109;28;46621;-80
2023/12/22 03:19:07;;;;;;;1.30;0.70;;;5.30;70.80;;;;;;4923366;28;46459;-79
2023/12/22 03:21:32;;;;;;;1.87;0.70;;;5.50;71.10;;;;;;4939371;28;47231;-81
2023/12/22 03:23:58;;;;;;;2.20;0.70;;;5.50;71.50;;;;;;4936918;28;46643;-81
2023/12/22 03:26:26;;;;;;;1.23;0.60;;;5.50;71.80;;;;;;4938529;28;47271;-80
2023/12/22 03:28:51;;;;;;;1.33;0.70;;;5.40;71.50;;;;;;4939665;28;46376;-80
2023/12/22 03:31:17;;;;;;;3.20;0.80;;;5.40;71.40;;;;;;4939916;28;46695;-81
2023/12/22 03:33:42;;;;;;;2.90;0.80;;;5.40;71.10;;;;;;4922011;28;46478;-80
2023/12/22 03:36:08;;;;;;;1.40;0.60;;;5.30;70.90;;;;;;4938085;28;46580;-78
2023/12/22 03:38:33;;;;;;;2.20;0.70;;;5.30;70.30;;;;;;4922471;28;46877;-78
2023/12/22 03:40:59;;;;;;;1.40;0.60;;;5.30;70.30;;;;;;4937946;28;47276;-81
2023/12/22 03:43:25;;;;;;;1.27;0.80;;;5.20;69.80;;;;;;4937248;28;46307;-80
2023/12/22 03:45:50;;;;;;;2.50;0.70;;;5.20;69.90;;;;;;4938837;28;46796;-80
2023/12/22 03:48:16;;;;;;;1.10;0.60;;;5.30;69.60;;;;;;4937084;28;46565;-80
2023/12/22 03:50:41;;;;;;;4.40;0.70;;;5.30;69.50;;;;;;4939166;28;46503;-80
2023/12/22 03:53:07;;;;;;;1.93;0.80;;;5.30;69.40;;;;;;4938650;28;46450;-81
2023/12/22 03:55:32;;;;;;;1.90;0.73;;;5.40;69.10;;;;;;4936070;28;46436;-80
2023/12/22 03:57:58;;;;;;;1.73;0.93;;;5.40;68.70;;;;;;4938057;28;45957;-80
2023/12/22 04:00:23;;;;;;;2.60;0.90;;;5.40;68.50;;;;;;4936752;28;47025;-81
2023/12/22 04:02:49;;;;;;;1.20;0.70;;;5.40;68.20;;;;;;4939764;28;46303;-84
2023/12/22 04:05:14;;;;;;;3.53;0.80;;;5.50;68.10;;;;;;4937567;28;47902;-81
2023/12/22 04:07:40;;;;;;;4.50;1.67;;;5.50;67.50;;;;;;4923850;28;46598;-78
2023/12/22 04:10:06;;;;;;;2.13;0.60;;;5.50;67.30;;;;;;4938165;28;48280;-81
2023/12/22 04:12:32;;;;;;;2.83;0.73;;;5.50;67.00;;;;;;4941546;28;46487;-80
2023/12/22 04:14:57;;;;;;;1.53;0.80;;;5.60;66.90;;;;;;4924748;28;46515;-80
2023/12/22 04:17:23;;;;;;;1.20;0.70;;;5.60;66.60;;;;;;4938599;28;46915;-82
2023/12/22 04:19:48;;;;;;;2.23;1.03;;;5.70;66.50;;;;;;4942930;28;46818;-81
2023/12/22 04:22:14;;;;;;;2.67;1.00;;;5.80;66.20;;;;;;4940541;28;46549;-80
2023/12/22 04:24:39;;;;;;;1.73;0.70;;;5.80;66.00;;;;;;4942964;28;46510;-81
2023/12/22 04:27:05;;;;;;;5.47;1.00;;;5.90;66.00;;;;;;4944184;28;46335;-83
2023/12/22 04:29:30;;;;;;;1.50;0.70;;;5.90;66.00;;;;;;4940559;28;48977;-84
2023/12/22 04:31:56;;;;;;;3.77;0.80;;;5.90;66.00;;;;;;4941634;28;48614;-80
2023/12/22 04:34:21;;;;;;;4.10;1.23;;;5.90;66.00;;;;;;4938743;28;46110;-82
2023/12/22 04:36:47;;;;;;;5.23;0.80;;;5.90;65.90;;;;;;4920519;28;46839;-80
2023/12/22 04:39:12;;;;;;;3.20;1.00;;;5.80;66.20;;;;;;4936930;28;50930;-80
2023/12/22 04:41:38;;;;;;;1.60;0.67;;;5.80;65.90;;;;;;4919449;28;47226;-80
2023/12/22 04:44:04;;;;;;;2.70;0.83;;;5.90;65.50;;;;;;4934402;28;46862;-80
2023/12/22 04:46:33;;;;;;;1.83;0.80;;;5.90;65.20;;;;;;4940673;28;46996;-79
2023/12/22 04:48:58;;;;;;;3.20;0.67;;;6.00;64.70;;;;;;4938319;28;47073;-82
2023/12/22 04:51:24;;;;;;;3.63;0.87;;;6.00;64.60;;;;;;4937021;28;45837;-80
2023/12/22 04:53:49;;;;;;;1.50;0.70;;;6.00;64.10;;;;;;4936940;28;46639;-80
2023/12/22 04:56:15;;;;;;;3.53;0.70;;;6.00;64.00;;;;;;4938049;28;46456;-80
2023/12/22 04:58:40;;;;;;;1.20;0.60;;;6.00;64.20;;;;;;4937457;28;46931;-80
2023/12/22 05:01:06;;;;;;;1.70;0.70;;;6.00;65.40;;;;;;4937371;28;46473;-81
2023/12/22 05:03:32;;;;;;;2.30;0.77;;;5.90;64.10;;;;;;4938548;28;46394;-82
2023/12/22 05:05:57;;;;;;;2.10;0.70;;;5.90;64.10;;;;;;4941023;28;46906;-81
2023/12/22 05:08:23;;;;;;;7.80;0.90;;;6.00;64.20;;;;;;4940717;28;47149;-81
2023/12/22 05:10:49;;;;;;;3.50;0.90;;;6.00;64.10;;;;;;4941324;28;46213;-82
2023/12/22 05:13:14;;;;;;;1.27;0.60;;;6.10;64.20;;;;;;4945774;28;46368;-80
2023/12/22 05:15:40;;;;;;;3.37;0.70;;;6.10;64.00;;;;;;4922059;28;46710;-80
2023/12/22 05:18:05;;;;;;;5.03;1.20;;;6.10;65.50;;;;;;4940519;28;46511;-80
2023/12/22 05:20:31;;;;;;;1.30;0.80;;;6.10;64.70;;;;;;4938050;28;46675;-81
2023/12/22 05:22:56;;;;;;;1.60;0.83;;;5.90;66.00;;;;;;4925772;28;46505;-81
2023/12/22 05:25:22;;;;;;;3.93;0.73;;;5.70;67.10;;;;;;4939582;28;46245;-80
2023/12/22 05:27:48;;;;;;;5.83;1.17;;;5.60;68.30;;;;;;4939744;28;46641;-81
2023/12/22 05:30:13;;;;;;;3.17;0.87;;;5.60;68.80;;;;;;4939085;28;46780;-81
2023/12/22 05:32:39;;;;;;;2.90;0.90;;;5.60;69.00;;;;;;4939564;28;46732;-82
2023/12/22 05:35:05;;;;;;;1.13;0.80;;;5.60;69.30;;;;;;4939870;28;46500;-83
2023/12/22 05:37:30;;;;;;;9.97;1.10;;;5.70;69.30;;;;;;4925453;28;48583;-80
2023/12/22 05:39:56;;;;;;;6.77;0.70;;;5.70;69.60;;;;;;4944367;28;46658;-82
2023/12/22 05:42:21;;;;;;;2.50;0.97;;;5.70;69.30;;;;;;4942472;28;46511;-80
2023/12/22 05:44:49;;;;;;;2.93;0.90;;;5.80;69.10;;;;;;4940144;28;46835;-81
2023/12/22 05:47:15;;;;;;;2.03;0.90;;;5.80;68.80;;;;;;4941051;28;46238;-81
2023/12/22 05:49:41;;;;;;;3.30;0.80;;;5.90;68.80;;;;;;4930557;28;46575;-81
2023/12/22 05:52:09;;;;;;;4.40;0.80;;;5.80;68.90;;;;;;4941169;28;46398;-81
2023/12/22 05:54:34;;;;;;;3.50;1.13;;;5.80;69.00;;;;;;4923407;28;47097;-80
2023/12/22 05:57:00;;;;;;;1.60;0.83;;;5.80;68.80;;;;;;4938438;28;47545;-80
2023/12/22 05:59:27;;;;;;;4.30;0.90;;;5.90;68.80;;;;;;4938641;28;46684;-80
2023/12/22 06:01:56;;;;;;;2.17;0.90;;;5.90;68.80;;;;;;4923678;28;46400;-80
2023/12/22 06:04:21;;;;;;;2.40;1.33;;;5.90;68.60;;;;;;4941452;28;46520;-80
2023/12/22 06:06:47;;;;;;;4.50;0.93;;;5.90;68.20;;;;;;4939766;28;46527;-80
2023/12/22 06:09:12;;;;;;;1.63;0.77;;;6.00;67.60;;;;;;4939879;28;46417;-77
2023/12/22 06:11:39;;;;;;;2.73;1.07;;;6.00;66.90;;;;;;4936693;28;46742;-80
2023/12/22 06:14:05;;;;;;;1.70;0.90;;;6.00;66.70;;;;;;4939870;28;46528;-81
2023/12/22 06:16:31;;;;;;;2.90;1.17;;;6.00;66.40;;;;;;4940433;28;47992;-83
2023/12/22 06:18:57;;;;;;;10.87;2.93;;;6.00;66.50;;;;;;4940530;28;46663;-80
2023/12/22 06:21:22;;;;;;;2.40;1.00;;;6.00;66.70;;;;;;4940102;28;46748;-80
2023/12/22 06:23:48;;;;;;;1.77;0.90;;;6.00;67.00;;;;;;4939946;28;46235;-81
2023/12/22 06:26:13;;;;;;;1.13;0.67;;;5.90;67.20;;;;;;4941688;28;46903;-81
2023/12/22 06:28:39;;;;;;;2.00;1.10;;;5.90;67.50;;;;;;4923125;28;46745;-77
2023/12/22 06:31:18;;;;;;;4.23;1.33;;;5.90;67.40;;;;;;4940293;28;46744;-80
2023/12/22 06:33:44;;;;;;;2.20;0.77;;;5.90;67.10;;;;;;4941915;28;46471;-80
2023/12/22 06:36:21;;;;;;;4.23;1.00;;;5.90;67.00;;;;;;4941137;28;46990;-79
2023/12/22 06:38:50;;;;;;;1.57;0.80;;;6.00;67.30;;;;;;4942303;28;46699;-82
2023/12/22 06:41:23;;;;;;;4.47;0.87;;;6.10;66.80;;;;;;4940008;28;46435;-79
2023/12/22 06:43:50;;;;;;;3.23;1.00;;;6.10;66.50;;;;;;4942646;28;47191;-82
2023/12/22 06:46:19;;;;;;;2.10;1.10;;;6.10;66.60;;;;;;4943460;28;46508;-81
2023/12/22 06:48:45;;;;;;;5.40;0.97;;;6.10;66.70;;;;;;4941193;28;46754;-82
2023/12/22 06:51:30;;;;;;;3.13;0.90;;;6.10;66.40;;;;;;4944721;28;46855;-83
2023/12/22 06:53:57;;;;;;;5.40;0.90;;;6.00;66.30;;;;;;4929424;28;46835;-80
2023/12/22 06:56:24;;;;;;;10.93;1.33;;;6.10;66.20;;;;;;4946074;28;46538;-81
2023/12/22 06:58:57;;;;;;;9.07;1.67;;;6.20;65.80;;;;;;4942337;28;46707;-84
2023/12/22 07:01:33;;;;;;;4.07;1.13;;;6.10;66.40;;;;;;4941092;28;46995;-83
2023/12/22 07:04:00;;;;;;;2.47;1.00;;;6.10;66.80;;;;;;4945975;28;46564;-83
2023/12/22 07:06:30;;;;;;;4.93;1.10;;;6.00;67.30;;;;;;4925544;28;47343;-79
2023/12/22 07:09:11;;;;;;;3.97;1.10;;;6.00;67.20;;;;;;4939117;28;46717;-81
2023/12/22 07:11:46;;;;;;;3.33;0.80;;;6.00;67.40;;;;;;4937418;28;46723;-80
2023/12/22 07:14:12;;;;;;;5.93;1.33;;;5.90;68.50;;;;;;4940244;28;46569;-83
2023/12/22 07:16:38;;;;;;;6.20;1.50;;;5.90;68.70;;;;;;4938296;28;47746;-82
2023/12/22 07:19:04;;;;;;;4.80;1.10;;;6.00;68.50;;;;;;4938168;28;48009;-82
2023/12/22 07:21:30;;;;;;;5.10;1.53;;;6.00;68.50;;;;;;4921172;28;46550;-79
2023/12/22 07:23:56;;;;;;;4.43;1.03;;;6.10;68.80;;;;;;4937794;28;46736;-79
2023/12/22 07:26:24;;;;;;;11.50;1.70;;;6.10;68.60;;;;;;4938383;28;48344;-81
2023/12/22 07:28:49;;;;;;;2.43;1.30;;;6.20;68.30;;;;;;4938503;28;46982;-79
2023/12/22 07:31:15;;;;;;;4.40;1.00;;;6.20;67.80;;;;;;4939794;28;46628;-80
2023/12/22 07:33:41;;;;;;;2.80;1.33;;;6.20;67.60;;;;;;4937947;28;45922;-79
2023/12/22 07:36:10;;;;;;;1.70;1.03;;;6.10;67.60;;;;;;4934332;28;47833;-80
2023/12/22 07:38:36;;;;;;;3.33;0.87;;;6.10;67.90;;;;;;4933118;28;46982;-78
2023/12/22 07:41:02;;;;;;;3.83;1.13;;;6.10;67.70;;;;;;4936151;28;46428;-79
2023/12/22 07:43:29;;;;;;;5.70;1.10;;;6.10;67.50;;;;;;4934174;28;46526;-79
2023/12/22 07:45:55;;;;;;;9.40;1.27;;;6.20;67.60;;;;;;4936273;28;47228;-79
2023/12/22 07:48:20;;;;;;;5.43;1.60;;;6.20;67.60;;;;;;4916731;28;46779;-82
2023/12/22 07:50:46;;;;;;;5.83;1.20;;;6.20;67.40;;;;;;4933692;28;46683;-81
2023/12/22 07:53:12;;;;;;;3.73;1.10;;;6.20;67.10;;;;;;4933418;28;45923;-79
2023/12/22 07:55:38;;;;;;;5.23;1.30;;;6.30;67.10;;;;;;4934211;28;47044;-79
2023/12/22 07:58:04;;;;;;;2.97;1.13;;;6.30;67.30;;;;;;4935989;28;46799;-81
2023/12/22 08:00:30;;;;;;;4.23;1.17;;;6.30;67.30;;;;;;4934182;28;46622;-82
2023/12/22 08:02:55;;;;;;;3.37;1.03;;;6.30;67.40;;;;;;4933792;28;46451;-79
2023/12/22 08:05:21;;;;;;;5.10;1.43;;;6.40;67.00;;;;;;4932175;28;46955;-81
2023/12/22 08:07:47;;;;;;;1.67;1.00;;;6.40;67.00;;;;;;4934523;28;46366;-80
2023/12/22 08:10:12;;;;;;;5.07;1.03;;;6.40;67.00;;;;;;4934390;28;46386;-82
2023/12/22 08:12:38;;;;;;;4.10;1.00;;;6.40;67.00;;;;;;4933072;28;46433;-80
2023/12/22 08:15:04;;;;;;;3.43;0.80;;;6.50;66.90;;;;;;4935762;28;46530;-80
2023/12/22 08:17:29;;;;;;;3.27;1.03;;;6.30;67.50;;;;;;4932939;28;46823;-82
2023/12/22 08:19:56;;;;;;;1.87;0.80;;;6.10;68.70;;;;;;4932040;28;46143;-81
2023/12/22 08:22:22;;;;;;;7.83;0.90;;;5.90;69.70;;;;;;4932054;28;46487;-77
2023/12/22 08:24:48;;;;;;;5.33;1.17;;;5.90;70.30;;;;;;4939333;28;46570;-80
2023/12/22 08:27:14;;;;;;;5.63;1.10;;;5.90;70.50;;;;;;4943293;28;46580;-83
2023/12/22 08:29:39;;;;;;;4.97;1.53;;;5.80;70.70;;;;;;4943331;28;46902;-82
2023/12/22 08:32:05;;;;;;;6.90;2.60;;;5.90;72.10;;;;;;4936532;28;46900;-77
2023/12/22 08:34:31;;;;;;;6.47;1.53;;;5.90;70.50;;;;;;4935048;28;46761;-82
2023/12/22 08:36:56;;;;;;;3.47;1.23;;;6.00;70.60;;;;;;4933969;28;46976;-82
2023/12/22 08:39:24;;;;;;;5.80;1.80;;;6.00;70.80;;;;;;4939093;28;46768;-85
2023/12/22 08:41:49;;;;;;;7.80;1.60;;;6.00;70.90;;;;;;4936021;28;47080;-81
2023/12/22 08:44:15;;;;;;;6.47;1.30;;;6.10;70.30;;;;;;4917942;28;48675;-83
2023/12/22 08:46:41;;;;;;;4.37;1.30;;;6.20;70.00;;;;;;4941709;28;46536;-80
2023/12/22 08:49:07;;;;;;;3.67;1.27;;;6.40;69.40;;;;;;4940207;28;46457;-84
2023/12/22 08:51:33;;;;;;;6.77;2.30;;;6.50;68.60;;;;;;4943717;28;46512;-87
2023/12/22 08:53:59;;;;;;;5.57;1.50;;;6.60;68.10;;;;;;4941775;28;46411;-83
2023/12/22 08:56:26;;;;;;;5.37;1.20;;;6.70;68.00;;;;;;4946207;28;46779;-80
2023/12/22 08:58:52;;;;;;;7.77;1.30;;;6.60;67.90;;;;;;4944306;28;46518;-82
2023/12/22 09:01:19;;;;;;;10.53;1.93;;;6.60;68.20;;;;;;4939014;28;46679;-80
2023/12/22 09:03:47;;;;;;;4.33;1.23;;;6.50;68.20;;;;;;4935594;28;46532;-78
2023/12/22 09:06:20;;;;;;;11.07;1.60;;;6.50;68.20;;;;;;4937375;28;46708;-80
2023/12/22 09:08:46;;;;;;;2.27;1.00;;;6.60;68.30;;;;;;4934573;28;46435;-80
2023/12/22 09:11:12;;;;;;;3.13;1.20;;;6.50;68.00;;;;;;4937674;28;46695;-81
2023/12/22 09:13:38;;;;;;;4.80;1.57;;;6.30;68.60;;;;;;4936722;28;46890;-81
2023/12/22 09:16:05;;;;;;;5.93;1.30;;;6.40;68.70;;;;;;4937158;28;46526;-78
2023/12/22 09:18:31;;;;;;;2.93;1.00;;;6.40;68.30;;;;;;4935413;28;46520;-78
2023/12/22 09:20:57;;;;;;;10.70;1.77;;;6.40;69.30;;;;;;4934761;28;46703;-80
2023/12/22 09:23:23;;;;;;;11.17;1.37;;;6.40;68.00;;;;;;4935967;28;47384;-78
2023/12/22 09:25:48;;;;;;;4.00;1.20;;;6.20;68.30;;;;;;4937733;28;46425;-80
2023/12/22 09:28:14;;;;;;;2.90;0.70;;;6.10;68.80;;;;;;4940430;28;46799;-80
2023/12/22 09:30:39;;;;;;;2.20;0.93;;;5.90;69.40;;;;;;4937709;28;46757;-82
2023/12/22 09:33:05;;;;;;;1.70;0.70;;;5.30;71.60;;;;;;4935072;28;46665;-83
2023/12/22 09:35:30;;;;;;;1.63;0.70;;;5.00;73.60;;;;;;4936380;28;46417;-82
2023/12/22 09:37:56;;;;;;;2.40;0.70;;;4.70;74.70;;;;;;4934698;28;46510;-78
2023/12/22 09:40:22;;;;;;;2.93;0.90;;;4.50;75.50;;;;;;4919278;28;46802;-80
2023/12/22 09:42:48;;;;;;;2.57;1.00;;;4.60;75.40;;;;;;4933247;28;46554;-83
2023/12/22 09:45:18;;;;;;;3.43;0.83;;;4.60;75.50;;;;;;4934430;28;46916;-87
2023/12/22 09:47:44;;;;;;;3.03;0.87;;;4.70;75.20;;;;;;4936023;28;47929;-79
2023/12/22 09:50:10;;;;;;;3.90;0.93;;;4.80;75.10;;;;;;4937612;28;46914;-79
2023/12/22 09:52:37;;;;;;;3.40;1.00;;;4.80;75.20;;;;;;4933416;28;47316;-79
2023/12/22 09:55:04;;;;;;;1.03;0.70;;;4.90;74.70;;;;;;4937189;28;47054;-79
2023/12/22 09:57:30;;;;;;;2.60;1.00;;;5.00;73.80;;;;;;4935746;28;46639;-80
2023/12/22 09:59:58;;;;;;;6.83;1.83;;;5.10;73.80;;;;;;4936624;28;46371;-78
2023/12/22 10:02:26;;;;;;;3.37;1.30;;;5.20;73.80;;;;;;4933505;28;46875;-80
2023/12/22 10:04:52;;;;;;;6.80;1.40;;;5.20;73.80;;;;;;4936235;28;46559;-79
2023/12/22 10:07:19;;;;;;;2.70;1.23;;;5.40;74.00;;;;;;4937438;28;47003;-80
2023/12/22 10:09:47;;;;;;;5.43;1.63;;;5.50;72.90;;;;;;4936928;28;46710;-79
2023/12/22 10:12:14;;;;;;;2.20;1.17;;;5.60;72.10;;;;;;4932036;28;46466;-80
2023/12/22 10:14:41;;;;;;;5.80;1.60;;;5.70;71.70;;;;;;4918434;28;47137;-80
2023/12/22 10:17:07;;;;;;;6.43;1.67;;;5.90;71.20;;;;;;4936233;28;46514;-79
2023/12/22 10:19:32;;;;;;;9.00;1.83;;;6.00;70.80;;;;;;4936229;28;47255;-80
2023/12/22 10:21:58;;;;;;;11.40;1.57;;;6.20;70.70;;;;;;4919809;28;48098;-81
2023/12/22 10:24:43;;;;;;;4.47;1.40;;;6.30;70.50;;;;;;4937819;28;47087;-80
2023/12/22 10:27:14;;;;;;;4.40;1.10;;;6.40;70.10;;;;;;4941116;28;46503;-81
2023/12/22 10:29:40;;;;;;;2.70;1.10;;;6.50;70.10;;;;;;4939771;28;46748;-79
2023/12/22 10:32:08;;;;;;;3.50;1.10;;;6.60;70.00;;;;;;4935733;28;46487;-77
2023/12/22 10:34:34;;;;;;;4.07;1.00;;;6.70;70.20;;;;;;4939908;28;46431;-81
2023/12/22 10:37:00;;;;;;;2.40;0.90;;;6.70;70.10;;;;;;4940264;28;46459;-81
2023/12/22 10:39:29;;;;;;;2.37;1.00;;;6.70;70.20;;;;;;4939618;28;46283;-82
2023/12/22 10:41:56;;;;;;;4.87;1.70;;;6.60;70.40;;;;;;4938957;28;46478;-79
2023/12/22 10:44:25;;;;;;;8.20;2.23;;;6.60;70.80;;;;;;4920657;28;46634;-83
2023/12/22 10:46:51;;;;;;;17.67;5.93;;;6.60;70.90;;;;;;4941183;28;46685;-81
2023/12/22 10:49:16;;;;;;;23.40;8.57;;;6.60;71.00;;;;;;4926072;28;46621;-84
2023/12/22 10:51:42;;;;;;;30.43;9.40;;;6.60;71.30;;;;;;4939926;28;46514;-80
2023/12/22 10:54:08;;;;;;;3.00;1.47;;;6.60;71.10;;;;;;4918404;28;46665;-80
2023/12/22 10:56:34;;;;;;;4.93;1.97;;;6.50;71.30;;;;;;4936645;28;46821;-77
2023/12/22 10:59:01;;;;;;;6.60;2.27;;;6.60;71.50;;;;;;4936498;28;46387;-80
2023/12/22 11:01:31;;;;;;;3.17;1.17;;;6.60;71.30;;;;;;4920914;28;47664;-81
2023/12/22 11:04:01;;;;;;;2.97;1.00;;;6.60;71.40;;;;;;4934043;28;46475;-80
2023/12/22 11:06:29;;;;;;;4.10;1.50;;;6.60;71.40;;;;;;4935746;28;46478;-81
2023/12/22 11:08:57;;;;;;;5.47;1.33;;;6.60;71.50;;;;;;4936748;28;46901;-80
2023/12/22 11:11:37;;;;;;;3.03;0.70;;;6.60;71.60;;;;;;4926236;28;47945;-78
2023/12/22 11:14:04;;;;;;;4.57;1.20;;;6.50;71.70;;;;;;4936623;28;47147;-79
2023/12/22 11:16:33;;;;;;;3.33;1.20;;;6.40;72.20;;;;;;4938491;28;46658;-81
2023/12/22 11:19:00;;;;;;;1.67;0.80;;;6.50;72.30;;;;;;4936548;28;46958;-78
2023/12/22 11:21:26;;;;;;;4.93;1.30;;;6.50;72.10;;;;;;4936346;28;47038;-80
2023/12/22 11:23:53;;;;;;;4.90;1.10;;;6.50;72.20;;;;;;4936476;28;46980;-79
2023/12/22 11:26:21;;;;;;;2.33;0.97;;;6.50;72.30;;;;;;4936782;28;46457;-78
2023/12/22 11:28:59;;;;;;;2.53;1.10;;;6.50;72.20;;;;;;5065379;27;46471;-68
2023/12/22 11:31:27;;;;;;;4.33;1.30;;;6.50;72.00;;;;;;5063366;27;46461;-69
2023/12/22 11:33:55;;;;;;;3.23;1.20;;;6.60;72.20;;;;;;5065275;27;46696;-70
2023/12/22 11:36:22;;;;;;;3.70;0.97;;;6.70;71.90;;;;;;5065963;27;46884;-71
2023/12/22 11:38:48;;;;;;;2.70;1.07;;;6.60;71.70;;;;;;5064590;27;46828;-70
2023/12/22 11:41:29;;;;;;;4.97;1.13;;;6.70;71.80;;;;;;5062248;27;46376;-70
2023/12/22 11:43:57;;;;;;;6.67;1.10;;;6.70;71.70;;;;;;5061846;27;46503;-70
2023/12/22 11:46:26;;;;;;;3.10;1.00;;;6.70;71.50;;;;;;5062667;27;46482;-69
2023/12/22 11:48:52;;;;;;;2.83;1.10;;;6.70;71.40;;;;;;5062506;27;46751;-70
2023/12/22 11:51:18;;;;;;;3.40;1.10;;;6.80;71.30;;;;;;5063311;27;46397;-71
2023/12/22 11:53:45;;;;;;;2.73;1.10;;;6.70;71.20;;;;;;5064826;27;45860;-70
2023/12/22 11:56:12;;;;;;;2.60;1.13;;;6.80;72.30;;;;;;5065592;27;46407;-71
2023/12/22 11:58:52;;;;;;;3.10;0.93;;;6.70;71.20;;;;;;5063975;27;46127;-70
2023/12/22 12:01:21;;;;;;;1.93;1.03;;;6.70;71.40;;;;;;5065542;27;46481;-70
2023/12/22 12:03:52;;;;;;;3.40;1.30;;;6.60;71.80;;;;;;5061567;27;46661;-68
2023/12/22 12:06:30;;;;;;;3.43;1.10;;;6.60;71.70;;;;;;5062541;27;46899;-68
2023/12/22 12:08:56;;;;;;;6.57;1.60;;;6.70;71.60;;;;;;5063349;27;47107;-69
2023/12/22 12:11:23;;;;;;;7.17;1.20;;;6.80;71.50;;;;;;5067952;27;46570;-70
2023/12/22 12:13:50;;;;;;;2.63;1.10;;;6.90;71.10;;;;;;5067123;27;46557;-70
2023/12/22 12:16:23;;;;;;;5.60;1.20;;;7.00;70.70;;;;;;5066364;27;46391;-68
2023/12/22 12:18:50;;;;;;;4.47;1.20;;;7.00;70.40;;;;;;5066468;27;47347;-71
2023/12/22 12:21:16;;;;;;;1.50;0.90;;;7.00;70.10;;;;;;5068129;27;46538;-71
2023/12/22 12:23:42;;;;;;;4.20;1.37;;;7.10;70.10;;;;;;5067496;27;46562;-70
2023/12/22 12:26:08;;;;;;;2.80;0.97;;;7.10;70.20;;;;;;5063378;27;46420;-70
2023/12/22 12:28:36;;;;;;;4.73;1.20;;;7.10;70.00;;;;;;5070032;27;47984;-70
2023/12/22 12:31:06;;;;;;;4.60;1.30;;;7.10;70.00;;;;;;5066521;27;46523;-68
2023/12/22 12:33:32;;;;;;;1.93;0.90;;;7.10;69.90;;;;;;5065435;27;46420;-68
2023/12/22 12:36:00;;;;;;;2.87;0.97;;;7.10;69.90;;;;;;5062287;27;46674;-71
2023/12/22 12:38:53;;;;;;;5.13;1.13;;;7.00;69.90;;;;;;5059975;27;46673;-70
2023/12/22 12:41:29;;;;;;;4.67;1.23;;;7.00;70.20;;;;;;5054569;28;46463;-71
2023/12/22 12:43:56;;;;;;;4.67;1.40;;;6.90;70.20;;;;;;5049727;28;46699;-71
2023/12/22 12:46:21;;;;;;;5.80;1.90;;;6.90;70.10;;;;;;5052576;28;46458;-71
2023/12/22 12:48:47;;;;;;;4.30;1.00;;;7.00;70.10;;;;;;5051174;28;46760;-69
2023/12/22 12:51:13;;;;;;;3.73;1.17;;;6.90;70.10;;;;;;5054538;28;46421;-69
2023/12/22 12:53:38;;;;;;;5.93;1.23;;;6.90;70.10;;;;;;5052876;28;46097;-70
2023/12/22 12:56:05;;;;;;;4.20;1.23;;;6.90;70.00;;;;;;5049614;28;46409;-70